Time;durP1;ratioP1;P1;durP2;ratioP2;P2;SDS_P1;SDS_P2;PMS_P1;PMS_P2;Temp;Humidity;BMP_temperature;BMP_pressure;BME280_temperature;BME280_humidity;BME280_pressure;Samples;Min_cycle;Max_cycle;Signal;HPM_P1;HPM_P2
2022/07/31 00:02:17;;;;;;;7.40;1.85;;;;;;;;;;5053083;28;20556;-62
2022/07/31 00:04:42;;;;;;;4.72;2.00;;;;;;;;;;5053452;28;20227;-61
2022/07/31 00:07:07;;;;;;;9.27;2.97;;;;;;;;;;5052562;28;20745;-62
2022/07/31 00:09:33;;;;;;;6.05;2.25;;;;;;;;;;5053371;28;20632;-62
2022/07/31 00:11:58;;;;;;;4.00;1.80;;;;;;;;;;5053209;28;20211;-61
2022/07/31 00:14:23;;;;;;;5.97;1.90;;;;;;;;;;5052027;28;20222;-61
2022/07/31 00:16:48;;;;;;;2.40;1.90;;;;;;;;;;5052782;28;20215;-61
2022/07/31 00:19:16;;;;;;;3.17;2.00;;;;;;;;;;5053246;28;20803;-61
2022/07/31 00:21:41;;;;;;;4.47;1.90;;;;;;;;;;5052394;28;20210;-62
2022/07/31 00:24:06;;;;;;;3.55;1.98;;;;;;;;;;5052876;28;20255;-61
2022/07/31 00:26:32;;;;;;;4.60;2.10;;;;;;;;;;5053234;28;20678;-61
2022/07/31 00:28:57;;;;;;;4.63;2.10;;;;;;;;;;5051774;28;20219;-61
2022/07/31 00:31:23;;;;;;;6.68;2.70;;;;;;;;;;5052736;28;20704;-62
2022/07/31 00:33:48;;;;;;;3.20;2.03;;;;;;;;;;5053090;28;20276;-62
2022/07/31 00:36:13;;;;;;;4.68;2.10;;;;;;;;;;5051866;28;20221;-62
2022/07/31 00:38:38;;;;;;;3.22;1.90;;;;;;;;;;5052900;28;20272;-61
2022/07/31 00:41:04;;;;;;;3.60;2.00;;;;;;;;;;5034402;28;20203;-62
2022/07/31 00:43:29;;;;;;;4.65;2.05;;;;;;;;;;5052145;28;20265;-61
2022/07/31 00:45:56;;;;;;;5.15;2.50;;;;;;;;;;5052850;28;20288;-61
2022/07/31 00:48:22;;;;;;;4.10;2.17;;;;;;;;;;5052076;28;20222;-61
2022/07/31 00:50:47;;;;;;;5.47;2.35;;;;;;;;;;5052185;28;20207;-61
2022/07/31 00:53:12;;;;;;;4.70;2.10;;;;;;;;;;5051986;28;20215;-62
2022/07/31 00:55:38;;;;;;;4.20;2.03;;;;;;;;;;5052926;28;20219;-62
2022/07/31 00:58:03;;;;;;;6.57;2.22;;;;;;;;;;5051369;28;20242;-62
2022/07/31 01:00:28;;;;;;;3.92;1.83;;;;;;;;;;5052806;28;20218;-62
2022/07/31 01:02:53;;;;;;;4.45;2.15;;;;;;;;;;5051943;28;20213;-62
2022/07/31 01:05:19;;;;;;;5.88;2.22;;;;;;;;;;5050969;28;20231;-62
2022/07/31 01:07:45;;;;;;;3.17;2.10;;;;;;;;;;5051815;28;20311;-62
2022/07/31 01:10:11;;;;;;;3.40;1.88;;;;;;;;;;5050932;28;20215;-61
2022/07/31 01:12:38;;;;;;;4.05;2.03;;;;;;;;;;5033890;28;20219;-61
2022/07/31 01:15:04;;;;;;;6.05;2.30;;;;;;;;;;5034252;28;20209;-62
2022/07/31 01:17:30;;;;;;;5.07;2.03;;;;;;;;;;5033783;28;20613;-61
2022/07/31 01:19:55;;;;;;;3.90;2.22;;;;;;;;;;5052728;28;20703;-61
2022/07/31 01:22:39;;;;;;;4.78;2.17;;;;;;;;;;5052250;28;20655;-62
2022/07/31 01:25:16;;;;;;;4.60;2.05;;;;;;;;;;5033136;28;20217;-62
2022/07/31 01:27:42;;;;;;;3.25;2.10;;;;;;;;;;5051493;28;20227;-61
2022/07/31 01:30:08;;;;;;;5.15;2.00;;;;;;;;;;5051447;28;20313;-62
2022/07/31 01:32:34;;;;;;;7.80;2.17;;;;;;;;;;5051487;28;20246;-62
2022/07/31 01:35:01;;;;;;;3.92;1.95;;;;;;;;;;5034486;28;20615;-62
2022/07/31 01:37:29;;;;;;;4.93;2.28;;;;;;;;;;5051365;28;20230;-62
2022/07/31 01:40:04;;;;;;;6.32;2.15;;;;;;;;;;5051233;28;20207;-61
2022/07/31 01:42:30;;;;;;;6.65;2.10;;;;;;;;;;5051874;28;20210;-62
2022/07/31 01:44:56;;;;;;;4.57;1.90;;;;;;;;;;5037132;28;20230;-61
2022/07/31 01:47:22;;;;;;;3.88;2.42;;;;;;;;;;5037368;28;20780;-61
2022/07/31 01:49:49;;;;;;;4.93;2.20;;;;;;;;;;5029627;28;20224;-61
2022/07/31 01:52:14;;;;;;;4.38;2.03;;;;;;;;;;5023574;28;20607;-61
2022/07/31 01:54:39;;;;;;;4.10;2.40;;;;;;;;;;5024281;28;20211;-61
2022/07/31 01:57:04;;;;;;;7.00;2.72;;;;;;;;;;5023628;28;20372;-62
2022/07/31 01:59:30;;;;;;;4.40;2.30;;;;;;;;;;5035392;28;20215;-61
2022/07/31 02:01:56;;;;;;;4.03;2.30;;;;;;;;;;5012739;28;20219;-61
2022/07/31 02:04:21;;;;;;;6.40;2.08;;;;;;;;;;5012039;28;20247;-61
2022/07/31 02:06:47;;;;;;;5.93;2.30;;;;;;;;;;5019399;28;20273;-61
2022/07/31 02:09:13;;;;;;;4.05;2.30;;;;;;;;;;5021247;28;20659;-61
2022/07/31 02:11:38;;;;;;;3.78;2.00;;;;;;;;;;5022588;28;20689;-61
2022/07/31 02:14:04;;;;;;;4.40;2.38;;;;;;;;;;5020906;28;20224;-61
2022/07/31 02:16:29;;;;;;;4.78;2.20;;;;;;;;;;5004139;28;20698;-61
2022/07/31 02:18:54;;;;;;;4.05;2.28;;;;;;;;;;5008547;28;20223;-61
2022/07/31 02:21:20;;;;;;;4.88;2.05;;;;;;;;;;5017708;28;20219;-61
2022/07/31 02:23:45;;;;;;;5.90;2.42;;;;;;;;;;5014908;28;20635;-62
2022/07/31 02:26:10;;;;;;;5.25;2.30;;;;;;;;;;5013934;28;20211;-62
2022/07/31 02:28:36;;;;;;;5.95;2.40;;;;;;;;;;5015671;28;20645;-61
2022/07/31 02:31:02;;;;;;;5.03;2.38;;;;;;;;;;5021630;28;20678;-62
2022/07/31 02:33:27;;;;;;;4.35;2.30;;;;;;;;;;5022196;28;20274;-62
2022/07/31 02:35:53;;;;;;;5.57;2.30;;;;;;;;;;5021380;28;20691;-62
2022/07/31 02:38:19;;;;;;;4.60;2.22;;;;;;;;;;5004956;28;20218;-62
2022/07/31 02:40:44;;;;;;;3.80;2.03;;;;;;;;;;5022064;28;20215;-61
2022/07/31 02:43:10;;;;;;;5.30;2.10;;;;;;;;;;5023559;28;20208;-61
2022/07/31 02:45:35;;;;;;;3.60;2.28;;;;;;;;;;5018110;28;20231;-62
2022/07/31 02:48:00;;;;;;;3.45;2.10;;;;;;;;;;5016755;28;20228;-63
2022/07/31 02:50:25;;;;;;;6.63;2.35;;;;;;;;;;5017259;28;20614;-62
2022/07/31 02:52:51;;;;;;;4.50;2.47;;;;;;;;;;5020587;28;20227;-62
2022/07/31 02:55:16;;;;;;;4.80;2.28;;;;;;;;;;5005308;28;20224;-62
2022/07/31 02:57:42;;;;;;;5.38;2.60;;;;;;;;;;5024106;28;20282;-62
2022/07/31 03:00:21;;;;;;;6.95;2.55;;;;;;;;;;5025102;28;20216;-62
2022/07/31 03:02:47;;;;;;;4.47;2.50;;;;;;;;;;5005409;28;20223;-62
2022/07/31 03:05:12;;;;;;;6.10;2.40;;;;;;;;;;5039441;28;20606;-62
2022/07/31 03:07:38;;;;;;;6.25;2.30;;;;;;;;;;5038510;28;20634;-61
2022/07/31 03:10:03;;;;;;;4.22;2.40;;;;;;;;;;5035521;28;20233;-62
2022/07/31 03:12:29;;;;;;;3.88;2.30;;;;;;;;;;5036576;28;20204;-61
2022/07/31 03:14:55;;;;;;;6.25;2.60;;;;;;;;;;5021987;28;20231;-62
2022/07/31 03:17:21;;;;;;;5.38;2.38;;;;;;;;;;5025227;28;20571;-62
2022/07/31 03:19:46;;;;;;;4.72;2.30;;;;;;;;;;5044712;28;20226;-61
2022/07/31 03:22:12;;;;;;;4.28;2.53;;;;;;;;;;5044282;28;20215;-62
2022/07/31 03:24:37;;;;;;;4.22;2.40;;;;;;;;;;5026116;28;20250;-61
2022/07/31 03:27:02;;;;;;;3.33;2.30;;;;;;;;;;5044156;28;20288;-62
2022/07/31 03:29:35;;;;;;;4.38;2.35;;;;;;;;;;5022304;28;20895;-61
2022/07/31 03:32:01;;;;;;;5.85;2.45;;;;;;;;;;5035182;28;20607;-62
2022/07/31 03:34:26;;;;;;;3.42;2.30;;;;;;;;;;5036265;28;20215;-62
2022/07/31 03:36:51;;;;;;;5.38;2.30;;;;;;;;;;5035393;28;20316;-61
2022/07/31 03:39:17;;;;;;;6.88;2.65;;;;;;;;;;5023368;28;20222;-61
2022/07/31 03:41:42;;;;;;;21.20;3.47;;;;;;;;;;5024213;28;20208;-61
2022/07/31 03:44:07;;;;;;;6.22;2.47;;;;;;;;;;5025290;28;20322;-61
2022/07/31 03:46:32;;;;;;;17.40;3.45;;;;;;;;;;5043472;28;20231;-61
2022/07/31 03:48:58;;;;;;;5.22;2.47;;;;;;;;;;5044106;28;21134;-61
2022/07/31 03:51:23;;;;;;;6.32;2.30;;;;;;;;;;5023550;28;20215;-61
2022/07/31 03:53:50;;;;;;;8.93;2.92;;;;;;;;;;5014790;28;20674;-61
2022/07/31 03:56:16;;;;;;;7.50;3.17;;;;;;;;;;5017102;28;20223;-61
2022/07/31 03:58:41;;;;;;;5.68;2.45;;;;;;;;;;5036963;28;20765;-61
2022/07/31 04:01:07;;;;;;;14.30;3.65;;;;;;;;;;5021743;28;20690;-62
2022/07/31 04:03:32;;;;;;;3.60;2.17;;;;;;;;;;5007058;28;20235;-62
2022/07/31 04:05:57;;;;;;;4.75;2.70;;;;;;;;;;5024092;28;20220;-62
2022/07/31 04:08:22;;;;;;;4.78;2.60;;;;;;;;;;5023287;28;20227;-62
2022/07/31 04:10:48;;;;;;;6.15;2.60;;;;;;;;;;5024060;28;20215;-62
2022/07/31 04:13:13;;;;;;;6.30;2.80;;;;;;;;;;5022611;28;20277;-62
2022/07/31 04:15:39;;;;;;;5.07;2.50;;;;;;;;;;5017816;28;20258;-62
2022/07/31 04:18:04;;;;;;;6.35;2.60;;;;;;;;;;5015749;28;20280;-62
2022/07/31 04:20:29;;;;;;;3.60;2.53;;;;;;;;;;5015021;28;20790;-62
2022/07/31 04:22:54;;;;;;;4.35;2.75;;;;;;;;;;5022423;28;20873;-62
2022/07/31 04:25:20;;;;;;;6.72;2.90;;;;;;;;;;5023273;28;20216;-62
2022/07/31 04:27:45;;;;;;;4.25;2.65;;;;;;;;;;5022898;28;20226;-61
2022/07/31 04:30:11;;;;;;;5.30;2.90;;;;;;;;;;5022843;28;20290;-61
2022/07/31 04:32:36;;;;;;;7.93;2.67;;;;;;;;;;5024851;28;20773;-61
2022/07/31 04:35:02;;;;;;;4.75;2.50;;;;;;;;;;5041821;28;20775;-62
2022/07/31 04:37:27;;;;;;;6.40;2.60;;;;;;;;;;5029724;28;20731;-61
2022/07/31 04:39:53;;;;;;;4.47;2.38;;;;;;;;;;5015280;28;20790;-61
2022/07/31 04:42:18;;;;;;;6.10;2.85;;;;;;;;;;5013794;28;20219;-61
2022/07/31 04:44:44;;;;;;;5.28;2.67;;;;;;;;;;5018960;28;20212;-61
2022/07/31 04:47:09;;;;;;;6.30;2.70;;;;;;;;;;5022573;28;20219;-62
2022/07/31 04:49:34;;;;;;;31.40;4.25;;;;;;;;;;5022731;28;20310;-62
2022/07/31 04:51:59;;;;;;;12.35;3.60;;;;;;;;;;5023268;28;20682;-62
2022/07/31 04:54:25;;;;;;;33.75;4.65;;;;;;;;;;5040150;28;20215;-62
2022/07/31 04:56:50;;;;;;;14.77;3.72;;;;;;;;;;5042122;28;20211;-62
2022/07/31 04:59:16;;;;;;;8.50;3.08;;;;;;;;;;5040644;28;20231;-62
2022/07/31 05:01:42;;;;;;;19.65;4.38;;;;;;;;;;5027455;28;20212;-62
2022/07/31 05:04:08;;;;;;;59.35;6.55;;;;;;;;;;5013699;28;20235;-62
2022/07/31 05:06:34;;;;;;;5.38;3.22;;;;;;;;;;5015892;28;20216;-62
2022/07/31 05:08:59;;;;;;;9.02;3.70;;;;;;;;;;5041949;28;20304;-63
2022/07/31 05:11:25;;;;;;;11.98;3.92;;;;;;;;;;5041467;28;20222;-62
2022/07/31 05:13:51;;;;;;;13.43;3.90;;;;;;;;;;5022828;28;20215;-62
2022/07/31 05:16:17;;;;;;;6.78;3.30;;;;;;;;;;5022977;28;20228;-62
2022/07/31 05:18:44;;;;;;;17.00;4.03;;;;;;;;;;5022749;28;20224;-63
2022/07/31 05:21:09;;;;;;;21.67;5.18;;;;;;;;;;5041946;28;20239;-63
2022/07/31 05:23:34;;;;;;;11.32;4.07;;;;;;;;;;5034509;28;20309;-62
2022/07/31 05:26:00;;;;;;;14.40;4.70;;;;;;;;;;5034059;28;20242;-62
2022/07/31 05:28:26;;;;;;;15.25;4.07;;;;;;;;;;5033707;28;20310;-63
2022/07/31 05:30:51;;;;;;;9.75;4.60;;;;;;;;;;5040400;28;20219;-63
2022/07/31 05:33:16;;;;;;;19.80;5.20;;;;;;;;;;5041544;28;20436;-63
2022/07/31 05:35:41;;;;;;;16.42;5.65;;;;;;;;;;5045115;28;20237;-61
2022/07/31 05:38:07;;;;;;;12.15;5.97;;;;;;;;;;5056055;28;20625;-61
2022/07/31 05:40:32;;;;;;;10.25;5.20;;;;;;;;;;5068186;28;20268;-63
2022/07/31 05:42:57;;;;;;;14.38;6.43;;;;;;;;;;5059719;28;20207;-62
2022/07/31 05:45:23;;;;;;;9.35;6.32;;;;;;;;;;5059383;28;20238;-63
2022/07/31 05:47:48;;;;;;;13.00;7.05;;;;;;;;;;5043252;28;20294;-64
2022/07/31 05:50:13;;;;;;;12.25;7.10;;;;;;;;;;5059152;28;20723;-64
2022/07/31 05:52:39;;;;;;;13.70;7.22;;;;;;;;;;5057582;28;20208;-64
2022/07/31 05:55:04;;;;;;;10.38;6.95;;;;;;;;;;5059422;28;20709;-62
2022/07/31 05:57:29;;;;;;;20.58;7.65;;;;;;;;;;5060992;28;20276;-63
2022/07/31 05:59:55;;;;;;;15.63;7.60;;;;;;;;;;5064887;28;20214;-63
2022/07/31 06:02:20;;;;;;;10.68;7.07;;;;;;;;;;5049507;28;20215;-63
2022/07/31 06:04:45;;;;;;;17.23;7.35;;;;;;;;;;5031682;28;20318;-65
2022/07/31 06:07:11;;;;;;;14.57;7.95;;;;;;;;;;5030902;28;20219;-65
2022/07/31 06:09:36;;;;;;;14.77;8.77;;;;;;;;;;5030876;28;20780;-64
2022/07/31 06:12:01;;;;;;;13.35;8.73;;;;;;;;;;5031808;28;20220;-65
2022/07/31 06:14:27;;;;;;;12.35;8.35;;;;;;;;;;5033346;28;20216;-64
2022/07/31 06:16:52;;;;;;;10.90;8.18;;;;;;;;;;5056119;28;20237;-64
2022/07/31 06:19:19;;;;;;;12.30;8.90;;;;;;;;;;5055295;28;20570;-64
2022/07/31 06:21:44;;;;;;;13.23;8.88;;;;;;;;;;5055146;28;20281;-64
2022/07/31 06:24:09;;;;;;;14.00;9.15;;;;;;;;;;5054974;28;20211;-64
2022/07/31 06:26:35;;;;;;;14.38;9.65;;;;;;;;;;5055818;28;20220;-64
2022/07/31 06:29:00;;;;;;;12.70;9.38;;;;;;;;;;5054193;28;20302;-64
2022/07/31 06:31:25;;;;;;;15.65;10.18;;;;;;;;;;5055787;28;20215;-64
2022/07/31 06:33:51;;;;;;;31.77;10.40;;;;;;;;;;5054724;28;20689;-65
2022/07/31 06:36:16;;;;;;;152.15;21.08;;;;;;;;;;5054831;28;20736;-63
2022/07/31 06:38:41;;;;;;;51.95;13.05;;;;;;;;;;5055657;28;20616;-65
2022/07/31 06:41:07;;;;;;;28.80;11.63;;;;;;;;;;5059354;28;20248;-65
2022/07/31 06:43:32;;;;;;;15.50;10.18;;;;;;;;;;5071514;28;20237;-65
2022/07/31 06:45:57;;;;;;;27.75;10.93;;;;;;;;;;5055004;28;20258;-64
2022/07/31 06:48:23;;;;;;;16.65;9.98;;;;;;;;;;5053810;28;20339;-64
2022/07/31 06:50:48;;;;;;;59.70;13.75;;;;;;;;;;5055224;28;20207;-65
2022/07/31 06:53:13;;;;;;;30.63;12.45;;;;;;;;;;5054813;28;20219;-64
2022/07/31 06:55:39;;;;;;;17.73;10.77;;;;;;;;;;5054315;28;20643;-67
2022/07/31 06:58:04;;;;;;;14.05;10.95;;;;;;;;;;5054388;28;20289;-66
2022/07/31 07:00:29;;;;;;;29.77;12.40;;;;;;;;;;5054403;28;20238;-65
2022/07/31 07:02:55;;;;;;;18.52;12.75;;;;;;;;;;5036176;28;20211;-66
2022/07/31 07:05:20;;;;;;;16.67;12.60;;;;;;;;;;5053996;28;20235;-65
2022/07/31 07:07:45;;;;;;;18.17;11.65;;;;;;;;;;5054880;28;20675;-63
2022/07/31 07:10:11;;;;;;;16.70;11.73;;;;;;;;;;5053682;28;20269;-64
2022/07/31 07:12:36;;;;;;;16.83;12.18;;;;;;;;;;5054720;28;20218;-63
2022/07/31 07:15:01;;;;;;;17.08;13.18;;;;;;;;;;5053946;28;20249;-62
2022/07/31 07:17:27;;;;;;;14.10;11.85;;;;;;;;;;5053742;28;20215;-63
2022/07/31 07:19:52;;;;;;;19.38;12.02;;;;;;;;;;5054808;28;20211;-63
2022/07/31 07:22:17;;;;;;;18.58;12.20;;;;;;;;;;5036370;28;20584;-64
2022/07/31 07:24:43;;;;;;;16.67;12.88;;;;;;;;;;5053763;28;20215;-63
2022/07/31 07:27:08;;;;;;;17.67;12.57;;;;;;;;;;5052814;28;20242;-64
2022/07/31 07:29:33;;;;;;;18.08;14.25;;;;;;;;;;5059202;28;20598;-64
2022/07/31 07:31:59;;;;;;;17.50;12.35;;;;;;;;;;5054331;28;20215;-63
2022/07/31 07:34:24;;;;;;;19.42;12.65;;;;;;;;;;5052806;28;20219;-65
2022/07/31 07:36:50;;;;;;;17.63;13.10;;;;;;;;;;5054232;28;20207;-65
2022/07/31 07:39:15;;;;;;;20.15;13.40;;;;;;;;;;5052769;28;20241;-65
2022/07/31 07:41:40;;;;;;;18.77;13.13;;;;;;;;;;5053758;28;20210;-65
2022/07/31 07:44:06;;;;;;;22.42;12.60;;;;;;;;;;5052227;28;20654;-65
2022/07/31 07:46:31;;;;;;;14.40;12.50;;;;;;;;;;5038837;28;20207;-64
2022/07/31 07:48:56;;;;;;;16.98;13.25;;;;;;;;;;5061851;28;20268;-64
2022/07/31 07:51:22;;;;;;;26.27;13.57;;;;;;;;;;5061890;28;21121;-66
2022/07/31 07:53:47;;;;;;;19.50;13.05;;;;;;;;;;5073933;28;20218;-66
2022/07/31 07:56:12;;;;;;;16.30;12.95;;;;;;;;;;5073386;28;20211;-65
2022/07/31 07:58:38;;;;;;;14.32;12.07;;;;;;;;;;5072869;28;20214;-68
2022/07/31 08:01:03;;;;;;;16.30;12.45;;;;;;;;;;5073060;28;20585;-65
2022/07/31 08:03:28;;;;;;;16.58;12.30;;;;;;;;;;5073246;28;20657;-64
2022/07/31 08:05:54;;;;;;;19.02;12.20;;;;;;;;;;5072886;28;20218;-64
2022/07/31 08:08:19;;;;;;;16.08;11.65;;;;;;;;;;5072950;28;20246;-65
2022/07/31 08:10:44;;;;;;;14.43;11.25;;;;;;;;;;5065515;28;20206;-64
2022/07/31 08:13:10;;;;;;;16.73;12.10;;;;;;;;;;5071097;28;20245;-65
2022/07/31 08:15:35;;;;;;;15.70;11.25;;;;;;;;;;5061889;28;20215;-65
2022/07/31 08:18:00;;;;;;;15.35;10.95;;;;;;;;;;5034852;28;20207;-65
2022/07/31 08:20:25;;;;;;;14.38;10.57;;;;;;;;;;5052483;28;20211;-66
2022/07/31 08:22:52;;;;;;;16.73;11.13;;;;;;;;;;5053340;28;20211;-64
2022/07/31 08:25:18;;;;;;;14.85;10.82;;;;;;;;;;5053261;28;20214;-63
2022/07/31 08:27:43;;;;;;;17.17;10.40;;;;;;;;;;5061901;28;20206;-63
2022/07/31 08:30:09;;;;;;;13.88;10.85;;;;;;;;;;5062637;28;20385;-64
2022/07/31 08:32:34;;;;;;;14.50;11.05;;;;;;;;;;5061345;28;20219;-63
2022/07/31 08:35:00;;;;;;;13.40;10.30;;;;;;;;;;5062404;28;20255;-64
2022/07/31 08:37:25;;;;;;;15.20;9.95;;;;;;;;;;5059836;28;20276;-63
2022/07/31 08:39:50;;;;;;;15.13;10.55;;;;;;;;;;5063414;28;20203;-65
2022/07/31 08:42:16;;;;;;;16.60;10.80;;;;;;;;;;5060215;28;20214;-65
2022/07/31 08:44:42;;;;;;;16.33;10.65;;;;;;;;;;5044893;28;20213;-64
2022/07/31 08:47:08;;;;;;;13.30;9.57;;;;;;;;;;5052110;28;20264;-66
2022/07/31 08:49:37;;;;;;;13.45;9.75;;;;;;;;;;5034116;28;20233;-65
2022/07/31 08:52:02;;;;;;;12.80;9.73;;;;;;;;;;5034426;28;20218;-64
2022/07/31 08:54:28;;;;;;;16.13;9.50;;;;;;;;;;5033856;28;20739;-65
2022/07/31 08:56:53;;;;;;;13.25;9.98;;;;;;;;;;5035124;28;20214;-66
2022/07/31 08:59:18;;;;;;;14.30;9.90;;;;;;;;;;5034334;28;20740;-65
2022/07/31 09:01:44;;;;;;;12.20;9.02;;;;;;;;;;5017326;28;20227;-65
2022/07/31 09:04:09;;;;;;;14.07;9.07;;;;;;;;;;5051572;28;20227;-68
2022/07/31 09:06:35;;;;;;;131.30;15.95;;;;;;;;;;5034752;28;20211;-64
2022/07/31 09:09:00;;;;;;;26.38;10.25;;;;;;;;;;5051096;28;20215;-65
2022/07/31 09:11:26;;;;;;;16.55;9.07;;;;;;;;;;5034439;28;20219;-64
2022/07/31 09:13:52;;;;;;;20.10;10.40;;;;;;;;;;5055176;28;20246;-64
2022/07/31 09:16:17;;;;;;;15.13;10.75;;;;;;;;;;5065235;28;20305;-64
2022/07/31 09:18:43;;;;;;;16.90;10.55;;;;;;;;;;5054305;28;20339;-64
2022/07/31 09:21:08;;;;;;;15.93;9.52;;;;;;;;;;5053962;28;20289;-65
2022/07/31 09:23:42;;;;;;;15.35;10.30;;;;;;;;;;5071376;28;20564;-64
2022/07/31 09:26:07;;;;;;;12.82;9.60;;;;;;;;;;5055340;28;20228;-64
2022/07/31 09:28:34;;;;;;;13.63;9.38;;;;;;;;;;5050882;28;20227;-64
2022/07/31 09:30:59;;;;;;;14.43;9.65;;;;;;;;;;5045245;28;20207;-64
2022/07/31 09:33:26;;;;;;;16.20;10.32;;;;;;;;;;5033865;28;20610;-64
2022/07/31 09:35:52;;;;;;;13.73;9.45;;;;;;;;;;5024475;28;20239;-64
2022/07/31 09:38:17;;;;;;;12.88;10.20;;;;;;;;;;5030355;28;20352;-63
2022/07/31 09:40:42;;;;;;;28.55;10.93;;;;;;;;;;5040503;28;20232;-65
2022/07/31 09:43:15;;;;;;;41.50;10.85;;;;;;;;;;5025231;28;20220;-64
2022/07/31 09:45:42;;;;;;;20.35;9.90;;;;;;;;;;5025669;28;20373;-63
2022/07/31 09:48:11;;;;;;;24.50;10.02;;;;;;;;;;5033933;28;20230;-64
2022/07/31 09:50:37;;;;;;;17.13;9.50;;;;;;;;;;5036013;28;20227;-64
2022/07/31 09:53:02;;;;;;;18.25;10.30;;;;;;;;;;5029182;28;20211;-65
2022/07/31 09:55:27;;;;;;;14.05;9.20;;;;;;;;;;5026569;28;20219;-64
2022/07/31 09:57:59;;;;;;;23.30;9.57;;;;;;;;;;5021912;28;20223;-64
2022/07/31 10:00:24;;;;;;;248.75;26.77;;;;;;;;;;5022362;28;20538;-65
2022/07/31 10:02:51;;;;;;;31.25;11.80;;;;;;;;;;5043098;28;20203;-64
2022/07/31 10:05:16;;;;;;;36.35;11.00;;;;;;;;;;5046845;28;20239;-65
2022/07/31 10:07:42;;;;;;;16.85;10.60;;;;;;;;;;5020213;28;20226;-63
2022/07/31 10:10:07;;;;;;;15.30;9.77;;;;;;;;;;5010386;28;20227;-64
2022/07/31 10:12:33;;;;;;;14.15;10.18;;;;;;;;;;5010376;28;20203;-64
2022/07/31 10:15:02;;;;;;;15.38;9.73;;;;;;;;;;5032762;28;20286;-64
2022/07/31 10:17:28;;;;;;;15.13;10.05;;;;;;;;;;5040655;28;20212;-64
2022/07/31 10:19:55;;;;;;;15.50;10.40;;;;;;;;;;5021124;28;20492;-64
2022/07/31 10:22:20;;;;;;;16.20;11.25;;;;;;;;;;5020799;28;20490;-64
2022/07/31 10:24:46;;;;;;;17.77;10.40;;;;;;;;;;5040442;28;20326;-64
2022/07/31 10:27:12;;;;;;;16.40;11.00;;;;;;;;;;5028580;28;20211;-63
2022/07/31 10:29:38;;;;;;;15.82;11.77;;;;;;;;;;5048287;28;20230;-63
2022/07/31 10:32:04;;;;;;;19.38;11.63;;;;;;;;;;5026634;28;20234;-64
2022/07/31 10:34:29;;;;;;;18.20;12.52;;;;;;;;;;5028025;28;20216;-63
2022/07/31 10:36:56;;;;;;;17.98;12.95;;;;;;;;;;5011402;28;20214;-63
2022/07/31 10:39:27;;;;;;;18.13;13.18;;;;;;;;;;5046836;28;20412;-63
2022/07/31 10:41:56;;;;;;;26.15;13.48;;;;;;;;;;5031064;28;20255;-63
2022/07/31 10:44:28;;;;;;;29.00;13.68;;;;;;;;;;5003599;28;20219;-64
2022/07/31 10:46:54;;;;;;;20.50;12.98;;;;;;;;;;5039018;28;20219;-65
2022/07/31 10:49:36;;;;;;;21.10;13.95;;;;;;;;;;5026569;28;20654;-64
2022/07/31 10:52:01;;;;;;;28.65;13.57;;;;;;;;;;5028051;28;20216;-66
2022/07/31 10:54:27;;;;;;;29.30;14.15;;;;;;;;;;5027304;28;20231;-64
2022/07/31 10:56:54;;;;;;;27.05;14.55;;;;;;;;;;5010223;28;20581;-66
2022/07/31 10:59:26;;;;;;;26.33;14.38;;;;;;;;;;5027862;28;20224;-65
2022/07/31 11:01:53;;;;;;;26.00;14.65;;;;;;;;;;5046348;28;20682;-62
2022/07/31 11:04:26;;;;;;;31.58;13.98;;;;;;;;;;5041980;28;20355;-63
2022/07/31 11:06:51;;;;;;;195.55;27.50;;;;;;;;;;5021709;28;20543;-65
2022/07/31 11:09:23;;;;;;;26.95;14.45;;;;;;;;;;5038207;28;20762;-66
2022/07/31 11:11:49;;;;;;;17.02;12.60;;;;;;;;;;5027037;28;20211;-67
2022/07/31 11:14:14;;;;;;;21.55;13.80;;;;;;;;;;5046976;28;20585;-66
2022/07/31 11:16:49;;;;;;;16.35;12.27;;;;;;;;;;5027314;28;20219;-66
2022/07/31 11:19:14;;;;;;;18.65;13.05;;;;;;;;;;5046680;28;20235;-67
2022/07/31 11:21:40;;;;;;;21.17;13.73;;;;;;;;;;5047389;28;20245;-66
2022/07/31 11:24:13;;;;;;;19.30;13.43;;;;;;;;;;5046096;28;20223;-66
2022/07/31 11:26:46;;;;;;;18.95;13.10;;;;;;;;;;5043310;28;20647;-67
2022/07/31 11:29:11;;;;;;;17.25;13.18;;;;;;;;;;5038057;28;20603;-66
2022/07/31 11:31:37;;;;;;;16.80;14.57;;;;;;;;;;5038791;28;20214;-65
2022/07/31 11:34:02;;;;;;;16.45;14.15;;;;;;;;;;5042883;28;20226;-66
2022/07/31 11:36:28;;;;;;;17.15;14.63;;;;;;;;;;5044407;28;20701;-66
2022/07/31 11:38:55;;;;;;;17.52;15.05;;;;;;;;;;5027145;28;20204;-67
2022/07/31 11:41:21;;;;;;;20.42;15.52;;;;;;;;;;5026820;28;20388;-65
2022/07/31 11:43:47;;;;;;;19.25;15.73;;;;;;;;;;5026128;28;20805;-67
2022/07/31 11:46:15;;;;;;;17.90;15.25;;;;;;;;;;5026440;28;20212;-66
2022/07/31 11:48:40;;;;;;;18.42;15.40;;;;;;;;;;5030092;28;20239;-64
2022/07/31 11:51:06;;;;;;;18.67;16.05;;;;;;;;;;5018582;28;20211;-66
2022/07/31 11:53:32;;;;;;;20.38;15.93;;;;;;;;;;5018984;28;20370;-65
2022/07/31 11:55:58;;;;;;;18.35;14.20;;;;;;;;;;5003182;28;20242;-67
2022/07/31 11:58:23;;;;;;;18.05;15.60;;;;;;;;;;5044727;28;20207;-67
2022/07/31 12:00:51;;;;;;;17.33;15.48;;;;;;;;;;5040076;28;20219;-67
2022/07/31 12:03:17;;;;;;;16.60;14.70;;;;;;;;;;5008719;28;20220;-67
2022/07/31 12:05:44;;;;;;;15.68;14.07;;;;;;;;;;5026012;28;20231;-68
2022/07/31 12:08:09;;;;;;;19.85;15.43;;;;;;;;;;5036326;28;20222;-67
2022/07/31 12:10:35;;;;;;;17.65;14.52;;;;;;;;;;5026761;28;20212;-68
2022/07/31 12:13:00;;;;;;;23.52;14.27;;;;;;;;;;5018727;28;20216;-65
2022/07/31 12:15:26;;;;;;;17.80;14.95;;;;;;;;;;5018887;28;20231;-68
2022/07/31 12:17:58;;;;;;;25.77;14.57;;;;;;;;;;5018726;28;20306;-66
2022/07/31 12:20:24;;;;;;;29.20;15.38;;;;;;;;;;5043881;28;20225;-67
2022/07/31 12:22:55;;;;;;;21.27;13.63;;;;;;;;;;5045901;28;20207;-68
2022/07/31 12:25:21;;;;;;;149.52;24.80;;;;;;;;;;5036396;28;20626;-68
2022/07/31 12:27:51;;;;;;;20.80;13.20;;;;;;;;;;5007937;28;20277;-67
2022/07/31 12:30:16;;;;;;;81.43;17.98;;;;;;;;;;5009926;28;20717;-66
2022/07/31 12:32:42;;;;;;;21.70;13.38;;;;;;;;;;5012032;28;20220;-69
2022/07/31 12:35:07;;;;;;;23.80;12.30;;;;;;;;;;5002912;28;20298;-69
2022/07/31 12:37:41;;;;;;;15.20;10.70;;;;;;;;;;5018227;28;20311;-69
2022/07/31 12:40:06;;;;;;;18.48;11.32;;;;;;;;;;5016568;28;20206;-69
2022/07/31 12:42:33;;;;;;;14.80;10.77;;;;;;;;;;5024373;28;20211;-70
2022/07/31 12:45:00;;;;;;;21.85;11.13;;;;;;;;;;5027171;28;20637;-67
2022/07/31 12:47:26;;;;;;;19.48;9.80;;;;;;;;;;5023534;28;20305;-67
2022/07/31 12:49:52;;;;;;;42.65;12.13;;;;;;;;;;5028694;28;20222;-66
2022/07/31 12:52:17;;;;;;;12.20;9.63;;;;;;;;;;5028701;28;20540;-67
2022/07/31 12:54:43;;;;;;;10.77;9.27;;;;;;;;;;5023103;28;20552;-67
2022/07/31 12:57:08;;;;;;;15.68;9.07;;;;;;;;;;5021667;28;20216;-67
2022/07/31 12:59:35;;;;;;;10.02;8.70;;;;;;;;;;5017504;28;20675;-67
2022/07/31 13:02:00;;;;;;;14.48;8.68;;;;;;;;;;5017585;28;20215;-67
2022/07/31 13:04:26;;;;;;;30.17;10.68;;;;;;;;;;5021293;28;20234;-68
2022/07/31 13:06:51;;;;;;;16.80;9.43;;;;;;;;;;5000993;28;20243;-68
2022/07/31 13:09:16;;;;;;;50.58;10.15;;;;;;;;;;5023303;28;20280;-67
2022/07/31 13:11:42;;;;;;;14.30;8.23;;;;;;;;;;5003831;28;20711;-67
2022/07/31 13:14:07;;;;;;;11.05;8.00;;;;;;;;;;5024585;28;20207;-67
2022/07/31 13:16:32;;;;;;;51.33;10.10;;;;;;;;;;5024525;28;20252;-67
2022/07/31 13:18:58;;;;;;;10.65;7.22;;;;;;;;;;5020915;28;20402;-67
2022/07/31 13:21:25;;;;;;;19.33;8.07;;;;;;;;;;5017941;28;20772;-69
2022/07/31 13:23:50;;;;;;;19.10;7.18;;;;;;;;;;5015645;28;20215;-66
2022/07/31 13:26:16;;;;;;;26.33;7.35;;;;;;;;;;5018094;28;20208;-66
2022/07/31 13:28:41;;;;;;;8.65;6.05;;;;;;;;;;5025432;28;20630;-67
2022/07/31 13:31:07;;;;;;;23.60;6.97;;;;;;;;;;5031197;28;20233;-67
2022/07/31 13:33:32;;;;;;;17.20;6.28;;;;;;;;;;5055943;28;20215;-68
2022/07/31 13:35:57;;;;;;;17.48;5.90;;;;;;;;;;5056994;28;20198;-67
2022/07/31 13:38:23;;;;;;;9.00;6.30;;;;;;;;;;5057775;28;20219;-66
2022/07/31 13:43:32;;;;;;;10.80;6.00;;;;;;;;;;5052991;28;20214;-66
2022/07/31 13:45:57;;;;;;;14.73;6.65;;;;;;;;;;5057565;28;20222;-66
2022/07/31 13:48:23;;;;;;;8.27;6.57;;;;;;;;;;5055720;28;20716;-66
2022/07/31 13:50:48;;;;;;;8.15;6.05;;;;;;;;;;5057601;28;20263;-66
2022/07/31 13:53:14;;;;;;;9.27;6.07;;;;;;;;;;5055824;28;20210;-66
2022/07/31 13:55:40;;;;;;;8.93;6.43;;;;;;;;;;5040837;28;20223;-66
2022/07/31 13:58:07;;;;;;;7.18;6.30;;;;;;;;;;5036727;28;20225;-68
2022/07/31 14:00:32;;;;;;;9.75;6.22;;;;;;;;;;5062294;28;20302;-67
2022/07/31 14:02:57;;;;;;;11.93;6.40;;;;;;;;;;5067318;28;20286;-67
2022/07/31 14:05:23;;;;;;;37.15;7.82;;;;;;;;;;5066340;28;20234;-67
2022/07/31 14:07:49;;;;;;;16.83;6.18;;;;;;;;;;5047236;28;20219;-67
2022/07/31 14:10:14;;;;;;;36.15;7.93;;;;;;;;;;5046952;28;20219;-67
2022/07/31 14:12:39;;;;;;;11.73;5.85;;;;;;;;;;5047130;28;20220;-68
2022/07/31 14:15:05;;;;;;;8.05;5.68;;;;;;;;;;5047471;28;20207;-67
2022/07/31 14:17:31;;;;;;;27.85;7.07;;;;;;;;;;5047764;28;20889;-69
2022/07/31 14:19:56;;;;;;;10.65;6.03;;;;;;;;;;5047058;28;20277;-70
2022/07/31 14:22:21;;;;;;;15.15;5.93;;;;;;;;;;5047260;28;20213;-69
2022/07/31 14:24:47;;;;;;;23.13;6.53;;;;;;;;;;5047372;28;20338;-68